createdAt,value
2018-10-15T00:02:03.634Z,18.90
2018-10-15T00:04:36.074Z,18.80
2018-10-15T00:07:12.911Z,18.80
2018-10-15T00:09:45.202Z,18.80
2018-10-15T00:12:17.804Z,18.80
2018-10-15T00:14:49.563Z,18.70
2018-10-15T00:17:21.470Z,18.60
2018-10-15T00:19:54.189Z,18.60
2018-10-15T00:22:26.951Z,18.60
2018-10-15T00:24:59.271Z,18.50
2018-10-15T00:27:31.534Z,18.40
2018-10-15T00:30:03.338Z,18.40
2018-10-15T00:32:35.564Z,18.30
2018-10-15T00:35:08.378Z,18.30
2018-10-15T00:37:41.207Z,18.30
2018-10-15T00:40:13.732Z,18.20
2018-10-15T00:42:45.784Z,18.10
2018-10-15T00:45:18.538Z,18.10
2018-10-15T00:47:50.962Z,18.00
2018-10-15T00:50:23.605Z,17.90
2018-10-15T00:52:56.171Z,17.90
2018-10-15T00:55:28.589Z,17.90
2018-10-15T00:58:00.438Z,17.80
2018-10-15T01:00:32.303Z,17.80
2018-10-15T01:03:07.637Z,17.70
2018-10-15T01:05:40.293Z,17.60
2018-10-15T01:08:12.884Z,17.50
2018-10-15T01:10:45.220Z,17.50
2018-10-15T01:13:18.195Z,17.40
2018-10-15T01:15:50.738Z,17.30
2018-10-15T01:18:23.162Z,17.20
2018-10-15T01:20:55.827Z,17.10
2018-10-15T01:23:28.611Z,17.00
2018-10-15T01:26:01.485Z,16.90
2018-10-15T01:28:34.379Z,16.90
2018-10-15T01:31:07.383Z,16.80
2018-10-15T01:33:40.652Z,16.80
2018-10-15T01:36:14.688Z,16.70
2018-10-15T01:38:46.860Z,16.60
2018-10-15T01:41:19.399Z,16.50
2018-10-15T01:43:52.444Z,16.50
2018-10-15T01:46:27.033Z,16.40
2018-10-15T01:48:59.802Z,16.40
2018-10-15T01:51:33.018Z,16.40
2018-10-15T01:54:06.525Z,16.30
2018-10-15T01:56:40.127Z,16.30
2018-10-15T01:59:12.138Z,16.20
2018-10-15T02:01:44.471Z,16.10
2018-10-15T02:04:18.938Z,16.10
2018-10-15T02:06:55.898Z,16.00
2018-10-15T02:09:28.921Z,15.90
2018-10-15T02:12:01.176Z,15.90
2018-10-15T02:14:33.975Z,15.90
2018-10-15T02:17:06.093Z,15.90
2018-10-15T02:19:38.373Z,15.80
2018-10-15T02:22:11.625Z,15.90
2018-10-15T02:24:44.034Z,15.80
2018-10-15T02:27:17.739Z,15.80
2018-10-15T02:29:50.225Z,15.80
2018-10-15T02:32:22.494Z,15.70
2018-10-15T02:34:54.374Z,15.70
2018-10-15T02:37:26.196Z,15.70
2018-10-15T02:39:58.580Z,15.60
2018-10-15T02:42:31.003Z,15.60
2018-10-15T02:45:03.634Z,15.50
2018-10-15T02:47:36.346Z,15.40
2018-10-15T02:50:10.192Z,15.40
2018-10-15T02:52:42.693Z,15.40
2018-10-15T02:55:14.611Z,15.30
2018-10-15T02:57:46.547Z,15.30
2018-10-15T03:00:18.833Z,15.30
2018-10-15T03:02:50.925Z,15.30
2018-10-15T03:05:23.375Z,15.30
2018-10-15T03:07:55.680Z,15.20
2018-10-15T03:10:28.076Z,15.10
2018-10-15T03:13:00.196Z,15.10
2018-10-15T03:15:31.938Z,15.00
2018-10-15T03:18:04.287Z,14.90
2018-10-15T03:20:36.667Z,14.90
2018-10-15T03:23:09.042Z,14.80
2018-10-15T03:25:41.670Z,14.80
2018-10-15T03:28:14.015Z,14.70
2018-10-15T03:30:46.283Z,14.70
2018-10-15T03:33:18.401Z,14.60
2018-10-15T03:35:50.394Z,14.50
2018-10-15T03:38:22.514Z,14.50
2018-10-15T03:40:54.922Z,14.50
2018-10-15T03:43:27.205Z,14.50
2018-10-15T03:46:00.155Z,14.50
2018-10-15T03:48:32.503Z,14.50
2018-10-15T03:51:04.631Z,14.40
2018-10-15T03:53:37.387Z,14.40
2018-10-15T03:56:09.493Z,14.40
2018-10-15T03:58:42.055Z,14.40
2018-10-15T04:01:14.595Z,14.30
2018-10-15T04:03:47.140Z,14.30
2018-10-15T04:06:19.408Z,14.30
2018-10-15T04:08:51.682Z,14.20
2018-10-15T04:11:24.231Z,14.20
2018-10-15T04:13:57.041Z,14.20
2018-10-15T04:16:29.653Z,14.10
2018-10-15T04:19:01.656Z,14.10
2018-10-15T04:21:33.937Z,14.00
2018-10-15T04:24:06.727Z,13.90
2018-10-15T04:26:39.409Z,14.00
2018-10-15T04:29:11.667Z,13.90
2018-10-15T04:31:43.973Z,13.90
2018-10-15T04:34:16.257Z,13.90
2018-10-15T04:36:48.337Z,13.90
2018-10-15T04:39:20.818Z,13.90
2018-10-15T04:41:53.747Z,13.90
2018-10-15T04:44:25.930Z,13.90
2018-10-15T04:46:58.325Z,13.90
2018-10-15T04:49:30.637Z,13.90
2018-10-15T04:52:03.081Z,14.00
2018-10-15T04:54:36.270Z,14.00
2018-10-15T04:57:08.412Z,14.00
2018-10-15T04:59:40.897Z,13.90
2018-10-15T05:02:13.572Z,13.90
2018-10-15T05:04:46.357Z,13.80
2018-10-15T05:07:18.809Z,13.80
2018-10-15T05:09:51.327Z,13.80
2018-10-15T05:12:24.094Z,13.70
2018-10-15T05:14:56.461Z,13.70
2018-10-15T05:17:29.204Z,13.60
2018-10-15T05:20:01.412Z,13.60
2018-10-15T05:22:33.978Z,13.60
2018-10-15T05:25:06.906Z,13.50
2018-10-15T05:27:39.532Z,13.60
2018-10-15T05:30:11.942Z,13.60
2018-10-15T05:32:44.258Z,13.60
2018-10-15T05:35:16.547Z,13.50
2018-10-15T05:37:48.621Z,13.50
2018-10-15T05:40:21.168Z,13.50
2018-10-15T05:42:53.743Z,13.50
2018-10-15T05:45:26.063Z,13.40
2018-10-15T05:47:58.768Z,13.40
2018-10-15T05:50:30.991Z,13.30
2018-10-15T05:53:03.138Z,13.30
2018-10-15T05:55:35.650Z,13.30
2018-10-15T05:58:07.854Z,13.40
2018-10-15T06:00:40.282Z,13.40
2018-10-15T06:03:12.706Z,13.40
2018-10-15T06:05:44.860Z,13.50
2018-10-15T06:08:17.469Z,13.40
2018-10-15T06:10:50.008Z,13.30
2018-10-15T06:13:22.292Z,13.30
2018-10-15T06:15:54.700Z,13.40
2018-10-15T06:18:27.290Z,13.30
2018-10-15T06:20:59.582Z,13.30
2018-10-15T06:23:32.096Z,13.30
2018-10-15T06:26:04.447Z,13.30
2018-10-15T06:28:37.057Z,13.30
2018-10-15T06:31:09.625Z,13.20
2018-10-15T06:33:42.146Z,13.20
2018-10-15T06:36:14.734Z,13.20
2018-10-15T06:38:47.005Z,13.10
2018-10-15T06:41:19.737Z,13.10
2018-10-15T06:43:52.327Z,13.10
2018-10-15T06:46:25.305Z,13.10
2018-10-15T06:48:57.979Z,13.00
2018-10-15T06:51:30.339Z,13.00
2018-10-15T06:54:02.733Z,13.00
2018-10-15T06:56:34.955Z,13.00
2018-10-15T06:59:07.551Z,13.00
2018-10-15T07:01:40.187Z,13.00
2018-10-15T07:04:13.037Z,13.10
2018-10-15T07:06:45.592Z,13.10
2018-10-15T07:09:17.778Z,13.10
2018-10-15T07:11:50.378Z,13.10
2018-10-15T07:14:23.741Z,13.10
2018-10-15T07:16:56.270Z,13.10
2018-10-15T07:19:28.780Z,13.10
2018-10-15T07:22:00.878Z,13.10
2018-10-15T07:24:33.551Z,13.00
2018-10-15T07:27:06.027Z,13.00
2018-10-15T07:29:38.388Z,12.90
2018-10-15T07:32:10.946Z,12.80
2018-10-15T07:34:43.410Z,12.80
2018-10-15T07:37:15.939Z,12.70
2018-10-15T07:39:48.365Z,12.70
2018-10-15T07:42:20.854Z,12.60
2018-10-15T07:44:53.414Z,12.60
2018-10-15T07:47:25.798Z,12.60
2018-10-15T07:49:58.198Z,12.40
2018-10-15T07:52:30.495Z,12.50
2018-10-15T07:55:03.642Z,12.50
2018-10-15T07:57:36.317Z,12.50
2018-10-15T08:00:11.783Z,12.50
2018-10-15T08:02:44.047Z,12.60
2018-10-15T08:05:16.792Z,12.50
2018-10-15T08:07:49.610Z,12.50
2018-10-15T08:10:22.198Z,12.50
2018-10-15T08:12:54.449Z,12.50
2018-10-15T08:15:26.854Z,12.40
2018-10-15T08:17:59.193Z,12.40
2018-10-15T08:20:31.471Z,12.30
2018-10-15T08:23:03.979Z,12.30
2018-10-15T08:25:36.332Z,12.20
2018-10-15T08:28:08.561Z,12.10
2018-10-15T08:30:40.994Z,12.00
2018-10-15T08:33:13.054Z,11.90
2018-10-15T08:35:45.487Z,11.70
2018-10-15T08:38:17.937Z,11.60
2018-10-15T08:40:50.450Z,11.50
2018-10-15T08:43:22.867Z,11.40
2018-10-15T08:45:55.243Z,11.20
2018-10-15T08:48:27.578Z,11.00
2018-10-15T08:51:00.475Z,10.80
2018-10-15T08:53:32.942Z,10.50
2018-10-15T08:56:05.605Z,10.60
2018-10-15T08:58:38.169Z,10.20
2018-10-15T09:01:10.364Z,10.30
2018-10-15T09:03:42.815Z,10.10
2018-10-15T09:06:15.278Z,9.80
2018-10-15T09:08:47.722Z,9.80
2018-10-15T09:11:19.928Z,9.40
2018-10-15T09:13:52.439Z,9.30
2018-10-15T09:16:24.921Z,9.20
2018-10-15T09:18:57.927Z,9.20
2018-10-15T09:21:30.644Z,9.10
2018-10-15T09:24:03.454Z,9.10
2018-10-15T09:26:35.924Z,8.90
2018-10-15T09:29:08.400Z,8.80
2018-10-15T09:31:40.956Z,8.70
2018-10-15T09:34:13.164Z,8.60
2018-10-15T09:36:45.595Z,8.60
2018-10-15T09:39:17.650Z,8.40
2018-10-15T09:41:50.037Z,8.60
2018-10-15T09:44:22.429Z,8.40
2018-10-15T09:46:54.757Z,8.30
2018-10-15T09:49:27.162Z,8.30
2018-10-15T09:51:59.494Z,8.10
2018-10-15T09:54:31.957Z,8.10
2018-10-15T09:57:04.158Z,8.00
2018-10-15T09:59:36.619Z,8.00
2018-10-15T10:02:11.925Z,7.90
2018-10-15T10:04:44.257Z,7.90
2018-10-15T10:07:16.347Z,7.80
2018-10-15T10:09:48.665Z,7.70
2018-10-15T10:12:21.043Z,7.70
2018-10-15T10:14:53.255Z,7.70
2018-10-15T10:17:25.668Z,7.60
2018-10-15T10:19:58.063Z,7.60
2018-10-15T10:22:30.709Z,7.70
2018-10-15T10:25:02.961Z,7.50
2018-10-15T10:27:35.385Z,7.50
2018-10-15T10:30:08.653Z,7.60
2018-10-15T10:32:41.000Z,7.70
2018-10-15T10:35:54.345Z,7.40
2018-10-15T10:38:31.316Z,7.50
2018-10-15T10:41:03.856Z,7.30
2018-10-15T10:43:36.457Z,7.30
2018-10-15T10:46:09.008Z,7.30
2018-10-15T10:48:41.763Z,7.30
2018-10-15T10:51:14.207Z,7.10
2018-10-15T10:53:46.798Z,6.90
2018-10-15T10:56:19.600Z,6.90
2018-10-15T10:58:52.027Z,6.90
2018-10-15T11:01:24.325Z,7.10
2018-10-15T11:03:56.681Z,7.00
2018-10-15T11:06:29.115Z,7.00
2018-10-15T11:09:01.382Z,6.90
2018-10-15T11:11:34.393Z,6.90
2018-10-15T11:14:06.914Z,7.00
2018-10-15T11:16:39.120Z,6.90
2018-10-15T11:19:11.539Z,6.80
2018-10-15T11:21:44.068Z,6.80
2018-10-15T11:24:16.970Z,6.90
2018-10-15T11:26:49.443Z,6.70
2018-10-15T11:29:22.123Z,6.80
2018-10-15T11:31:54.394Z,6.80
2018-10-15T11:34:27.242Z,6.80
2018-10-15T11:36:59.811Z,6.80
2018-10-15T11:39:32.148Z,6.90
2018-10-15T11:42:04.334Z,7.00
2018-10-15T11:44:36.691Z,6.50
2018-10-15T11:47:09.261Z,6.50
2018-10-15T11:49:41.973Z,6.60
2018-10-15T11:52:14.190Z,7.00
2018-10-15T11:54:46.778Z,6.60
2018-10-15T11:57:19.865Z,6.50
2018-10-15T11:59:52.488Z,6.40
2018-10-15T12:02:24.667Z,6.40
2018-10-15T12:04:56.887Z,6.50
2018-10-15T12:07:29.425Z,6.40
2018-10-15T12:10:01.903Z,6.70
2018-10-15T12:12:34.415Z,6.40
2018-10-15T12:15:07.228Z,6.40
2018-10-15T12:17:40.230Z,6.40
2018-10-15T12:20:13.881Z,6.40
2018-10-15T12:22:46.399Z,6.40
2018-10-15T12:25:19.182Z,6.40
2018-10-15T12:27:51.706Z,6.40
2018-10-15T12:30:24.135Z,6.70
2018-10-15T12:32:56.213Z,6.40
2018-10-15T12:35:28.626Z,6.40
2018-10-15T12:38:00.955Z,6.30
2018-10-15T12:40:33.388Z,6.20
2018-10-15T12:43:05.524Z,6.10
2018-10-15T12:45:42.160Z,6.30
2018-10-15T12:48:14.276Z,6.20
2018-10-15T12:50:46.454Z,6.60
2018-10-15T12:53:19.454Z,6.10
2018-10-15T12:55:51.541Z,6.10
2018-10-15T12:58:24.277Z,6.10
2018-10-15T13:00:56.870Z,6.30
2018-10-15T13:03:29.383Z,6.40
2018-10-15T13:06:02.079Z,6.30
2018-10-15T13:08:34.340Z,6.00
2018-10-15T13:11:06.591Z,6.30
2018-10-15T13:13:38.783Z,5.80
2018-10-15T13:16:11.132Z,6.10
2018-10-15T13:18:43.418Z,5.80
2018-10-15T13:21:15.806Z,5.80
2018-10-15T13:23:48.231Z,5.80
2018-10-15T13:26:20.752Z,5.80
2018-10-15T13:28:53.115Z,5.70
2018-10-15T13:31:25.310Z,5.80
2018-10-15T13:33:57.687Z,6.00
2018-10-15T13:36:29.953Z,5.70
2018-10-15T13:39:02.098Z,5.50
2018-10-15T13:41:35.467Z,5.80
2018-10-15T13:44:08.270Z,5.70
2018-10-15T13:46:40.697Z,5.80
2018-10-15T13:49:13.257Z,5.70
2018-10-15T13:51:45.663Z,5.70
2018-10-15T13:54:17.947Z,5.60
2018-10-15T13:56:51.267Z,5.70
2018-10-15T13:59:23.340Z,6.00
2018-10-15T14:01:55.890Z,5.50
2018-10-15T14:04:28.372Z,5.50
2018-10-15T14:07:00.904Z,5.40
2018-10-15T14:09:33.206Z,5.50
2018-10-15T14:12:05.725Z,5.50
2018-10-15T14:14:37.731Z,5.50
2018-10-15T14:17:10.141Z,5.40
2018-10-15T14:19:42.511Z,5.60
2018-10-15T14:22:14.905Z,5.40
2018-10-15T14:24:47.235Z,5.40
2018-10-15T14:27:20.023Z,5.60
2018-10-15T14:29:52.186Z,5.50
2018-10-15T14:32:24.630Z,5.50
2018-10-15T14:34:56.924Z,5.50
2018-10-15T14:37:29.610Z,5.30
2018-10-15T14:40:01.937Z,5.40
2018-10-15T14:42:34.397Z,5.40
2018-10-15T14:45:06.613Z,5.40
2018-10-15T14:47:39.011Z,5.40
2018-10-15T14:50:16.543Z,5.40
2018-10-15T14:52:50.348Z,5.70
2018-10-15T14:55:22.520Z,5.90
2018-10-15T14:57:55.090Z,5.70
2018-10-15T15:00:27.622Z,5.70
2018-10-15T15:03:00.214Z,5.80
2018-10-15T15:05:32.556Z,6.30
2018-10-15T15:08:05.223Z,6.10
2018-10-15T15:10:46.970Z,6.10
2018-10-15T15:13:28.956Z,6.10
2018-10-15T15:16:01.535Z,6.40
2018-10-15T15:18:34.187Z,6.20
2018-10-15T15:21:06.721Z,6.50
2018-10-15T15:23:38.840Z,6.70
2018-10-15T15:26:11.074Z,6.60
2018-10-15T15:28:43.573Z,6.40
2018-10-15T15:31:16.161Z,6.70
2018-10-15T15:33:48.895Z,6.80
2018-10-15T15:36:21.456Z,7.10
2018-10-15T15:38:54.058Z,7.00
2018-10-15T15:41:26.442Z,7.10
2018-10-15T15:43:58.998Z,7.20
2018-10-15T15:46:31.338Z,7.30
2018-10-15T15:49:03.751Z,7.70
2018-10-15T15:51:36.332Z,7.50
2018-10-15T15:54:09.018Z,7.70
2018-10-15T15:56:41.076Z,7.60
2018-10-15T15:59:13.682Z,7.70
2018-10-15T16:01:46.376Z,7.70
2018-10-15T16:04:19.068Z,7.90
2018-10-15T16:06:51.484Z,8.00
2018-10-15T16:09:27.100Z,8.10
2018-10-15T16:11:59.419Z,8.20
2018-10-15T16:14:31.811Z,8.40
2018-10-15T16:17:04.235Z,8.50
2018-10-15T16:19:36.819Z,8.60
2018-10-15T16:22:09.364Z,8.70
2018-10-15T16:24:41.777Z,8.70
2018-10-15T16:27:14.139Z,8.90
2018-10-15T16:29:46.318Z,8.80
2018-10-15T16:32:18.685Z,9.20
2018-10-15T16:34:50.876Z,9.50
2018-10-15T16:37:24.169Z,9.70
2018-10-15T16:39:56.445Z,9.80
2018-10-15T16:42:28.956Z,9.90
2018-10-15T16:45:01.195Z,10.10
2018-10-15T16:47:33.713Z,10.20
2018-10-15T16:50:06.197Z,10.40
2018-10-15T16:52:38.804Z,10.50
2018-10-15T16:55:13.615Z,10.50
2018-10-15T16:57:46.565Z,10.60
2018-10-15T17:00:18.775Z,10.90
2018-10-15T17:02:50.820Z,11.10
2018-10-15T17:05:23.259Z,11.60
2018-10-15T17:07:55.599Z,11.60
2018-10-15T17:10:28.077Z,11.90
2018-10-15T17:12:59.942Z,12.10
2018-10-15T17:15:32.466Z,12.30
2018-10-15T17:18:05.218Z,12.40
2018-10-15T17:20:37.893Z,12.60
2018-10-15T17:23:10.381Z,12.70
2018-10-15T17:25:42.713Z,12.90
2018-10-15T17:28:15.417Z,12.80
2018-10-15T17:30:47.793Z,12.80
2018-10-15T17:33:20.304Z,12.90
2018-10-15T17:35:52.675Z,13.00
2018-10-15T17:38:25.065Z,13.00
2018-10-15T17:40:57.558Z,13.10
2018-10-15T17:43:30.052Z,13.30
2018-10-15T17:46:02.693Z,13.40
2018-10-15T17:48:35.132Z,13.60
2018-10-15T17:51:07.731Z,13.70
2018-10-15T17:53:40.273Z,14.00
2018-10-15T17:56:13.289Z,14.40
2018-10-15T17:58:45.468Z,14.60
2018-10-15T18:01:18.130Z,14.80
2018-10-15T18:03:50.197Z,14.90
2018-10-15T18:06:22.815Z,15.00
2018-10-15T18:08:55.209Z,15.10
2018-10-15T18:11:27.582Z,15.10
2018-10-15T18:13:59.684Z,15.10
2018-10-15T18:16:31.834Z,15.00
2018-10-15T18:19:04.450Z,15.00
2018-10-15T18:21:36.725Z,15.00
2018-10-15T18:24:09.163Z,15.00
2018-10-15T18:26:41.611Z,14.90
2018-10-15T18:29:13.941Z,15.00
2018-10-15T18:31:46.614Z,15.00
2018-10-15T18:34:18.751Z,15.00
2018-10-15T18:36:51.022Z,15.00
2018-10-15T18:39:23.388Z,15.00
2018-10-15T18:41:55.845Z,15.10
2018-10-15T18:44:27.954Z,15.30
2018-10-15T18:47:00.513Z,15.40
2018-10-15T18:49:33.131Z,15.50
2018-10-15T18:52:05.728Z,15.50
2018-10-15T18:54:38.193Z,15.60
2018-10-15T18:57:10.349Z,15.60
2018-10-15T18:59:42.468Z,15.70
2018-10-15T19:02:15.866Z,15.70
2018-10-15T19:04:48.403Z,15.70
2018-10-15T19:07:20.791Z,15.80
2018-10-15T19:09:53.406Z,15.90
2018-10-15T19:12:25.844Z,15.90
2018-10-15T19:14:58.136Z,16.00
2018-10-15T19:17:30.750Z,16.10
2018-10-15T19:20:03.066Z,16.20
2018-10-15T19:22:35.544Z,16.30
2018-10-15T19:25:08.668Z,16.40
2018-10-15T19:27:41.080Z,16.50
2018-10-15T19:30:14.745Z,16.60
2018-10-15T19:32:47.041Z,16.60
2018-10-15T19:35:19.387Z,16.80
2018-10-15T19:37:52.433Z,17.10
2018-10-15T19:40:24.777Z,17.30
2018-10-15T19:42:58.903Z,17.70
2018-10-15T19:45:31.312Z,17.90
2018-10-15T19:48:03.965Z,17.90
2018-10-15T19:50:36.539Z,17.90
2018-10-15T19:53:08.812Z,18.00
2018-10-15T19:55:41.266Z,18.00
2018-10-15T19:58:14.660Z,18.00
2018-10-15T20:00:47.113Z,18.00
2018-10-15T20:03:19.852Z,17.90
2018-10-15T20:05:52.509Z,17.90
2018-10-15T20:08:25.008Z,17.90
2018-10-15T20:10:57.466Z,17.90
2018-10-15T20:13:29.915Z,17.90
2018-10-15T20:16:02.449Z,17.90
2018-10-15T20:18:35.057Z,17.80
2018-10-15T20:21:07.821Z,17.80
2018-10-15T20:23:40.264Z,17.80
2018-10-15T20:26:12.318Z,17.80
2018-10-15T20:28:44.813Z,17.90
2018-10-15T20:31:17.208Z,18.00
2018-10-15T20:33:49.421Z,18.10
2018-10-15T20:36:22.109Z,18.20
2018-10-15T20:38:54.444Z,18.30
2018-10-15T20:41:26.730Z,18.40
2018-10-15T20:43:59.015Z,18.40
2018-10-15T20:46:31.469Z,18.50
2018-10-15T20:49:03.996Z,18.70
2018-10-15T20:51:36.699Z,18.80
2018-10-15T20:54:09.851Z,18.80
2018-10-15T20:56:42.230Z,18.90
2018-10-15T20:59:14.870Z,19.00
2018-10-15T21:01:47.155Z,19.10
2018-10-15T21:04:20.037Z,19.20
2018-10-15T21:06:52.511Z,19.30
2018-10-15T21:09:24.997Z,19.30
2018-10-15T21:11:57.613Z,19.30
2018-10-15T21:14:30.251Z,19.40
2018-10-15T21:17:02.682Z,19.40
2018-10-15T21:19:35.309Z,19.50
2018-10-15T21:22:07.805Z,19.60
2018-10-15T21:24:40.497Z,19.60
2018-10-15T21:27:12.984Z,19.70
2018-10-15T21:29:45.305Z,19.70
2018-10-15T21:32:17.708Z,19.70
2018-10-15T21:34:50.062Z,19.80
2018-10-15T21:37:22.238Z,19.90
2018-10-15T21:39:54.444Z,19.90
2018-10-15T21:42:27.055Z,20.10
2018-10-15T21:44:59.771Z,20.30
2018-10-15T21:47:32.020Z,20.30
2018-10-15T21:50:04.761Z,20.40
2018-10-15T21:52:36.992Z,20.40
2018-10-15T21:55:10.800Z,20.40
2018-10-15T21:57:43.299Z,20.50
2018-10-15T22:00:17.977Z,20.50
2018-10-15T22:02:50.660Z,20.60
2018-10-15T22:05:23.037Z,20.60
2018-10-15T22:07:55.204Z,20.60
2018-10-15T22:10:34.108Z,20.70
2018-10-15T22:13:06.494Z,20.70
2018-10-15T22:15:38.829Z,20.80
2018-10-15T22:18:11.129Z,20.80
2018-10-15T22:20:43.521Z,20.90
2018-10-15T22:23:16.188Z,20.90
2018-10-15T22:25:48.650Z,20.90
2018-10-15T22:28:20.892Z,21.00
2018-10-15T22:30:53.227Z,21.00
2018-10-15T22:33:25.526Z,21.00
2018-10-15T22:35:57.976Z,21.10
2018-10-15T22:38:30.241Z,21.10
2018-10-15T22:41:02.869Z,21.10
2018-10-15T22:43:35.464Z,21.10
2018-10-15T22:46:08.370Z,21.20
2018-10-15T22:48:40.788Z,21.20
2018-10-15T22:51:13.459Z,21.20
2018-10-15T22:53:45.601Z,21.20
2018-10-15T22:56:18.108Z,21.20
2018-10-15T22:58:51.053Z,21.30
2018-10-15T23:01:23.584Z,21.30
2018-10-15T23:03:55.917Z,21.30
2018-10-15T23:06:28.197Z,21.30
2018-10-15T23:09:00.590Z,21.30
2018-10-15T23:11:33.179Z,21.30
2018-10-15T23:14:05.594Z,21.30
2018-10-15T23:16:37.976Z,21.30
2018-10-15T23:19:10.300Z,21.30
2018-10-15T23:21:42.580Z,21.20
2018-10-15T23:24:14.963Z,21.20
2018-10-15T23:26:47.143Z,21.10
2018-10-15T23:29:19.610Z,21.10
2018-10-15T23:31:52.147Z,21.10
2018-10-15T23:34:24.469Z,21.00
2018-10-15T23:36:56.705Z,21.00
2018-10-15T23:39:28.848Z,21.00
2018-10-15T23:42:01.404Z,20.90
2018-10-15T23:44:33.962Z,20.90
2018-10-15T23:47:06.375Z,20.90
2018-10-15T23:49:38.891Z,20.80
2018-10-15T23:52:11.298Z,20.80
2018-10-15T23:54:43.453Z,20.80
2018-10-15T23:57:16.041Z,20.80
2018-10-15T23:59:48.828Z,20.70
